Tiempo atmosférico en la estación meteorológica de Fresno de Cantiespino, Segovia (993 m.)



Fecha
DESCASC
Temp. máxima en grados centígrados (hora)
DESCASC
Temp. mínima en grados centígrados (hora)
DESCASC
Temp. media en grados centígrados
DESCASC
Racha de viento máxima en m/sg (hora)
DESCASC
Velocidad máxima media en intervalos de 10 minutos(hora)
DESCASC
Precipitaciones diarias en mm
DESCASC
Precipitaciones de 00:00 a 06:00 en mm
DESCASC
Precipitaciones de 06:00 a 12:00 en mm
DESCASC
Precipitaciones de 12:00 a 18:00 en mm
DESCASC
Precipitaciones de 18:00 a 24:00 en mm
DESCASC

Gráficas

Temp. máximas Temp. mínimas Temp. medias Precipitaciones Rachas de viento máximas Velocidades máximas media en intervalos de 10 minutos

Datos horarios

Fecha y hora oficial Temperatura (ºC) Velocidad del viento (km/h) Dirección del viento Racha (km/h) Dirección de racha Precipitación (mm) Presión (hPa) Tendencia (hPa) Humedad (%)
2018-01-22 23:00:00 -0.8 8 Sudoeste 10 Sudoeste 0 -- -- 98
2018-01-22 22:00:00 -0.4 8 Sur 10 Sur 0 -- -- 98
2018-01-22 21:00:00 -0.1 7 Sudoeste 10 Sur 0 -- -- 97
2018-01-22 20:00:00 1.5 4 Sur 8 Sur 0 -- -- 95
2018-01-22 19:00:00 2.9 6 Sudoeste 10 Sur 0 -- -- 91
2018-01-22 18:00:00 6.8 4 Oeste 17 Oeste 0 -- -- 83
2018-01-22 17:00:00 7 9 Oeste 19 Sudoeste 0 -- -- 84
2018-01-22 16:00:00 6.5 10 Sudoeste 23 Oeste 0 -- -- 86
2018-01-22 15:00:00 6.4 13 Oeste 25 Sudoeste 0 -- -- 89
2018-01-22 14:00:00 6.7 16 Sudoeste 23 Sudoeste 0 -- -- 89
2018-01-22 13:00:00 5.4 12 Oeste 23 Sudoeste 0 -- -- 94
2018-01-22 12:00:00 4.6 17 Sudoeste 31 Sudoeste 0 -- -- 98
2018-01-22 11:00:00 4.1 16 Sudoeste 31 Sudoeste 0 -- -- 99
2018-01-22 10:00:00 4.2 14 Sudoeste 21 Sudoeste 0 -- -- 99
2018-01-22 09:00:00 4 10 Sudoeste 19 Sudoeste 0 -- -- 100
2018-01-22 08:00:00 3.7 12 Sudoeste 23 Sudoeste 0 -- -- 100
2018-01-22 07:00:00 3.5 15 Sudoeste 28 Sudoeste 0 -- -- 100
2018-01-22 06:00:00 3.7 12 Sudoeste 20 Sudoeste 0 -- -- 100
2018-01-22 05:00:00 3.9 9 Sudoeste 21 Sudoeste 0 -- -- 100
2018-01-22 04:00:00 4.3 10 Sudoeste 19 Sudoeste 0 -- -- 100
2018-01-22 03:00:00 4.4 9 Sudoeste 15 Oeste 0 -- -- 100
2018-01-22 02:00:00 4.5 9 Sudoeste 21 Oeste 0 -- -- 99
2018-01-22 01:00:00 4.7 13 Sudoeste 25 Sudoeste 0 -- -- 99
2018-01-22 00:00:00 5 16 Sudoeste 23 Oeste 0 -- -- 97
2018-01-21 23:00:00 5.5 10 Sudoeste 19 Sudoeste 0 -- -- 95
2018-01-21 22:00:00 5.3 12 Sudoeste 15 Sudoeste 0 -- -- 96
2018-01-21 21:00:00 5.9 10 Sudoeste 19 Sudoeste 0 -- -- 92
2018-01-21 20:00:00 6.6 8 Sudoeste 20 Sudoeste 0 -- -- 92
2018-01-21 19:00:00 6.6 13 Sudoeste 24 Sudoeste 0 -- -- 93
2018-01-21 18:00:00 6.8 15 Sudoeste 24 Sudoeste 0 -- -- 93
2018-01-21 17:00:00 6.9 14 Sudoeste 24 Sudoeste 0 -- -- 93
2018-01-21 16:00:00 6.8 14 Sudoeste 26 Oeste 0 -- -- 93
2018-01-21 15:00:00 7 16 Sudoeste 30 Sudoeste 0 -- -- 93
2018-01-21 14:00:00 7 18 Sudoeste 28 Oeste 0 -- -- 91
2018-01-21 13:00:00 7 20 Sudoeste 31 Sudoeste 0 -- -- 92
2018-01-21 12:00:00 6.3 21 Sudoeste 33 Sudoeste 0 -- -- 96
2018-01-21 11:00:00 5.7 21 Sudoeste 34 Sudoeste 0 -- -- 98
2018-01-21 10:00:00 5.5 20 Sudoeste 29 Sudoeste 0 -- -- 98
2018-01-21 09:00:00 5.5 15 Sudoeste 23 Sudoeste 0 -- -- 97
2018-01-21 08:00:00 5.7 12 Sudoeste 30 Sudoeste 0 -- -- 97
2018-01-21 07:00:00 5.6 18 Sudoeste 34 Sudoeste 0 -- -- 97
2018-01-21 06:00:00 5.6 24 Sudoeste 36 Sudoeste 0 -- -- 97
2018-01-21 05:00:00 5.7 20 Sudoeste 34 Sudoeste 0 -- -- 96
2018-01-21 04:00:00 6.2 23 Sudoeste 38 Oeste 0 -- -- 94
2018-01-21 03:00:00 6.3 24 Sudoeste 39 Sudoeste 0 -- -- 93
2018-01-21 02:00:00 6.3 24 Sudoeste 43 Sudoeste 0 -- -- 92
2018-01-21 01:00:00 6.4 25 Sudoeste 42 Sudoeste 0 -- -- 90
2018-01-21 00:00:00 6.4 28 Sudoeste 41 Sudoeste 0 -- -- 89
2018-01-20 23:00:00 6.5 21 Sudoeste 35 Sudoeste 0 -- -- 87
2018-01-20 22:00:00 6.9 23 Sudoeste 32 Sudoeste 0 -- -- 83
2018-01-20 21:00:00 6.7 21 Sudoeste 31 Sudoeste 0 -- -- 80
2018-01-20 20:00:00 7.1 18 Sudoeste 27 Sudoeste 0 -- -- 76
2018-01-20 19:00:00 8.4 17 Sudoeste 26 Sudoeste 0 -- -- 71
2018-01-20 18:00:00 9.1 16 Sudoeste 34 Sudoeste 0 -- -- 67
2018-01-20 17:00:00 10.1 23 Oeste 41 Oeste 0 -- -- 63
2018-01-20 16:00:00 10.9 25 Sudoeste 40 Sudoeste 0 -- -- 57
2018-01-20 15:00:00 10.2 27 Sudoeste 43 Sudoeste 0 -- -- 54
2018-01-20 14:00:00 9.4 24 Sudoeste 38 Sudoeste 0 -- -- 56
2018-01-20 13:00:00 8.4 25 Sudoeste 37 Sudoeste 0 -- -- 56
2018-01-20 12:00:00 7.2 27 Sudoeste 42 Sudoeste 0 -- -- 63
2018-01-20 11:00:00 6.4 22 Sudoeste 34 Sudoeste 0 -- -- 70
2018-01-20 10:00:00 4.4 18 Sudoeste 30 Sudoeste 0 -- -- 87
2018-01-20 09:00:00 2.7 17 Sudoeste 24 Sudoeste 0 -- -- 95
2018-01-20 08:00:00 2.6 16 Sudoeste 26 Sudoeste 0 -- -- 95
2018-01-20 07:00:00 3.4 18 Sudoeste 27 Sudoeste 0 -- -- 95
2018-01-20 06:00:00 3.3 14 Sudoeste 30 Sudoeste 0 -- -- 96
2018-01-20 05:00:00 3.4 17 Sudoeste 24 Sudoeste 0 -- -- 96
2018-01-20 04:00:00 2.8 15 Sudoeste 22 Sudoeste 0 -- -- 96
2018-01-20 03:00:00 2.8 15 Sudoeste 20 Sudoeste 0 -- -- 96
2018-01-20 02:00:00 2.7 8 Sudoeste 11 Sudoeste 0 -- -- 98
2018-01-20 01:00:00 0.4 8 Sudoeste 10 Sudoeste 0 -- -- 95
2018-01-20 00:00:00 3.2 8 Oeste 14 Sudoeste 0 -- -- 93
2018-01-19 23:00:00 3.9 11 Sudoeste 15 Sudoeste 0 -- -- 92
2018-01-19 22:00:00 2.9 7 Sudoeste 13 Sudoeste 0 -- -- 97
2018-01-19 21:00:00 2.7 8 Sur 11 Sudoeste 0 -- -- 91
2018-01-19 20:00:00 4.8 9 Sudoeste 11 Oeste 0 -- -- 87
2018-01-19 19:00:00 6.2 9 Oeste 13 Noroeste 0 -- -- 84
2018-01-19 18:00:00 8 10 Noroeste 21 Noroeste 0 -- -- 77
2018-01-19 17:00:00 9.6 13 Noroeste 23 Noroeste 0 -- -- 69
2018-01-19 16:00:00 10.1 15 Noroeste 33 Noroeste 0 -- -- 66
2018-01-19 15:00:00 10 14 Oeste 23 Oeste 0 -- -- 69
2018-01-19 14:00:00 9.1 10 Noroeste 22 Oeste 0 -- -- 70
2018-01-19 13:00:00 8.5 12 Oeste 22 Oeste 0 -- -- 75
2018-01-19 12:00:00 7.8 13 Sudoeste 20 Sudoeste 0 -- -- 77
2018-01-19 11:00:00 6.5 15 Sudoeste 23 Sudoeste 0 -- -- 82
2018-01-19 10:00:00 3.5 11 Sudoeste 16 Sudoeste 0 -- -- 96
2018-01-19 09:00:00 -0.1 9 Sudoeste 14 Sur 0 -- -- 95
2018-01-19 08:00:00 1 6 Sudoeste 19 Oeste 0 -- -- 92
2018-01-19 07:00:00 -1 2 Sur 14 Oeste 0 -- -- 92
2018-01-19 06:00:00 -1.1 12 Sur 13 Sur 0 -- -- 95
2018-01-19 05:00:00 -1.1 5 Sudoeste 12 Sur 0 -- -- 95
2018-01-19 04:00:00 -1.3 6 Sudoeste 8 Sudoeste 0 -- -- 94
2018-01-19 03:00:00 -0.8 7 Sur 10 Sur 0 -- -- 93
2018-01-19 02:00:00 -0.2 2 Nordeste 10 Sudoeste 0 -- -- 90
2018-01-19 01:00:00 0 5 Sur 8 Sur 0 -- -- 91
2018-01-19 00:00:00 0.3 2 Sur 5 Sur 0 -- -- 91
2018-01-18 23:00:00 1.2 4 Sudoeste 12 Sudoeste 0 -- -- 89
2018-01-18 22:00:00 0.6 10 Sur 13 Sudoeste 0 -- -- 90
2018-01-18 21:00:00 1.3 8 Sudoeste 10 Sur 0 -- -- 89
2018-01-18 20:00:00 2.3 7 Sudoeste 13 Sur 0 -- -- 89
2018-01-18 19:00:00 4.7 0 Calma 6 Norte 0 -- -- 82
2018-01-18 18:00:00 9 0 Calma 8 Norte 0 -- -- 68
2018-01-18 17:00:00 10.5 7 Norte 13 Norte 0 -- -- 63
2018-01-18 16:00:00 11.6 7 Norte 9 Norte 0 -- -- 54
2018-01-18 15:00:00 11.3 6 Norte 11 Norte 0 -- -- 60
2018-01-18 14:00:00 9.8 4 Nordeste 10 Norte 0 -- -- 66
2018-01-18 13:00:00 7.2 4 Nordeste 11 Nordeste 0 -- -- 83
2018-01-18 12:00:00 6.1 6 Norte 12 Norte 0 -- -- 82
2018-01-18 11:00:00 4.2 3 Sur 6 Sudoeste 0 -- -- 86
2018-01-18 10:00:00 -0.1 3 Sur 4 Sur 0 -- -- 96
2018-01-18 09:00:00 -2.8 3 Sudoeste 8 Sur 0 -- -- 98
2018-01-18 08:00:00 -2.6 4 Sudoeste 9 Sur 0 -- -- 97
2018-01-18 07:00:00 -2.2 8 Sur 10 Sudoeste 0 -- -- 98
2018-01-18 06:00:00 -2.3 0 Calma 8 Sur 0 -- -- 97
2018-01-18 05:00:00 -1.8 6 Sur 8 Sur 0 -- -- 98
2018-01-18 04:00:00 -2.1 5 Sudoeste 9 Sur 0 -- -- 97
2018-01-18 03:00:00 -1.9 2 Sur 4 Sur 0 -- -- 97
2018-01-18 02:00:00 -1.3 0 Calma 3 Sur 0 -- -- 95
2018-01-18 01:00:00 -0.4 0 Calma 8 Sur 0 -- -- 96
2018-01-18 00:00:00 -0.4 6 Sur 10 Sudoeste 0 -- -- 96
2018-01-17 23:00:00 -0.2 9 Sudoeste 13 Sur 0 -- -- 96
2018-01-17 22:00:00 -0.1 9 Sur 13 Sur 0 -- -- 96
2018-01-17 21:00:00 0.3 10 Sur 13 Sur 0 -- -- 94
2018-01-17 20:00:00 1.5 8 Sur 11 Sur 0 -- -- 93
2018-01-17 19:00:00 3.3 7 Sur 8 Sur 0 -- -- 89
2018-01-17 18:00:00 6.9 8 Noroeste 13 Norte 0 -- -- 78
2018-01-17 17:00:00 8.4 8 Norte 15 Norte 0 -- -- 71
2018-01-17 16:00:00 8.4 12 Norte 19 Noroeste 0 -- -- 73
2018-01-17 15:00:00 8.1 13 Norte 19 Norte 0 -- -- 76
2018-01-17 14:00:00 7.3 9 Nordeste 16 Norte 0 -- -- 83
2018-01-17 13:00:00 7.2 7 Oeste 21 Oeste 0 -- -- 80
2018-01-17 12:00:00 6.9 15 Oeste 27 Oeste 0 -- -- 83
2018-01-17 11:00:00 6.2 16 Oeste 23 Oeste 0 -- -- 87
2018-01-17 10:00:00 5.9 12 Oeste 23 Oeste 0 -- -- 93
2018-01-17 09:00:00 5.6 17 Oeste 25 Oeste 0 -- -- 93
2018-01-17 08:00:00 6 18 Sudoeste 28 Oeste 0 -- -- 93
2018-01-17 07:00:00 6.4 18 Oeste 32 Sudoeste 0 -- -- 95
2018-01-17 06:00:00 6.6 22 Oeste 35 Sudoeste 0 -- -- 96
2018-01-17 05:00:00 6.8 19 Sudoeste 34 Sudoeste 0 -- -- 95
2018-01-17 04:00:00 7 19 Sudoeste 34 Sudoeste 0 -- -- 95
2018-01-17 03:00:00 7.3 18 Sudoeste 33 Sudoeste 0 -- -- 94
2018-01-17 02:00:00 7.4 22 Sudoeste 36 Sudoeste 0 -- -- 94
2018-01-17 01:00:00 7.6 22 Sudoeste 36 Sudoeste 0 -- -- 93
2018-01-17 00:00:00 7.9 23 Sudoeste 34 Sudoeste 0 -- -- 92
2018-01-16 23:00:00 8.1 22 Sudoeste 39 Oeste 0 -- -- 92
2018-01-16 22:00:00 8.2 23 Sudoeste 44 Sudoeste 0 -- -- 92
2018-01-16 21:00:00 8 25 Sudoeste 41 Sudoeste 0 -- -- 94
2018-01-16 20:00:00 7.9 21 Sudoeste 36 Sudoeste 0 -- -- 95
2018-01-16 19:00:00 8.1 22 Sudoeste 39 Sudoeste 0 -- -- 95
2018-01-16 18:00:00 8.2 17 Sudoeste 29 Sudoeste 0 -- -- 95
2018-01-16 17:00:00 8.1 17 Sudoeste 31 Sudoeste 0 -- -- 94
2018-01-16 16:00:00 8.1 14 Sudoeste 26 Sudoeste 0 -- -- 95
2018-01-16 15:00:00 8 13 Sudoeste 31 Sudoeste 0 -- -- 95
2018-01-16 14:00:00 7.7 19 Sudoeste 42 Sudoeste 0 -- -- 96
2018-01-16 13:00:00 7.2 28 Sudoeste 43 Sudoeste 0 -- -- 98
2018-01-16 12:00:00 6.7 25 Sudoeste 37 Sudoeste 0 -- -- 99
2018-01-16 11:00:00 6 21 Sudoeste 35 Sudoeste 0 -- -- 99
2018-01-16 10:00:00 5.7 20 Sudoeste 34 Sudoeste 0 -- -- 99
2018-01-16 09:00:00 5.4 23 Sudoeste 33 Sudoeste 0 -- -- 99
2018-01-16 08:00:00 5.1 21 Sudoeste 33 Sudoeste 0 -- -- 98
2018-01-16 07:00:00 4.8 22 Sudoeste 37 Sudoeste 0 -- -- 97
2018-01-16 06:00:00 4.9 24 Sudoeste 45 Sudoeste 0 -- -- 92
2018-01-16 05:00:00 5 26 Sudoeste 41 Sudoeste 0 -- -- 87
2018-01-16 04:00:00 5 26 Sudoeste 46 Sudoeste 0 -- -- 82
2018-01-16 03:00:00 5.2 31 Sudoeste 48 Sudoeste 0 -- -- 75
2018-01-16 02:00:00 4.8 31 Sudoeste 48 Sudoeste 0 -- -- 68
2018-01-16 01:00:00 4.8 28 Sudoeste 45 Sudoeste 0 -- -- 66
2018-01-16 00:00:00 4.8 27 Sudoeste 44 Sudoeste 0 -- -- 66
2018-01-15 23:00:00 4.5 17 Sudoeste 35 Sudoeste 0 -- -- 69
2018-01-15 22:00:00 4.4 19 Sudoeste 31 Sudoeste 0 -- -- 69
2018-01-15 21:00:00 4.4 15 Sudoeste 30 Sudoeste 0 -- -- 69
2018-01-15 20:00:00 4.2 15 Sudoeste 26 Sudoeste 0 -- -- 73
2018-01-15 19:00:00 4.3 19 Sudoeste 29 Sudoeste 0 -- -- 75
2018-01-15 18:00:00 4.6 17 Sudoeste 31 Sudoeste 0 -- -- 75
2018-01-15 17:00:00 5.1 18 Sudoeste 31 Sudoeste 0 -- -- 72
2018-01-15 16:00:00 5.5 22 Sudoeste 32 Sudoeste 0 -- -- 73
2018-01-15 15:00:00 4.9 20 Sudoeste 31 Sudoeste 0 -- -- 73
2018-01-15 14:00:00 4.4 17 Oeste 26 Oeste 0 -- -- 81
2018-01-15 13:00:00 3.8 19 Sudoeste 29 Sudoeste 0 -- -- 78
2018-01-15 12:00:00 2.8 17 Sudoeste 27 Sudoeste 0 -- -- 80
2018-01-15 11:00:00 1.3 15 Sudoeste 23 Sudoeste 0 -- -- 86
2018-01-15 10:00:00 -0.1 9 Sudoeste 15 Sur 0 -- -- 95
2018-01-15 09:00:00 -2 12 Sudoeste 16 Sudoeste 0 -- -- 98
2018-01-15 08:00:00 -1.7 8 Oeste 14 Sudoeste 0 -- -- 95
2018-01-15 07:00:00 -1.2 12 Sudoeste 17 Sudoeste 0 -- -- 96
2018-01-15 06:00:00 -0.8 10 Sudoeste 15 Sudoeste 0 -- -- 95
2018-01-15 05:00:00 -0.6 9 Sudoeste 11 Sudoeste 0 -- -- 95
2018-01-15 04:00:00 -0.1 4 Sudoeste 10 Sudoeste 0 -- -- 95
2018-01-15 03:00:00 -0.2 5 Sudoeste 9 Sur 0 -- -- 97
2018-01-15 02:00:00 -0.1 5 Sudoeste 8 Sudoeste 0 -- -- 97
2018-01-15 01:00:00 0.3 4 Sudoeste 10 Sudoeste 0 -- -- 96
2018-01-15 00:00:00 0.5 5 Sudoeste 9 Sudoeste 0 -- -- 96
2018-01-14 23:00:00 0.8 3 Sudoeste 12 Sudoeste 0 -- -- 95
2018-01-14 22:00:00 0.4 4 Sudoeste 9 Sudoeste 0 -- -- 96
2018-01-14 21:00:00 0.9 6 Oeste 10 Oeste 0 -- -- 94
2018-01-14 20:00:00 0.9 4 Sudoeste 14 Norte 0 -- -- 93
2018-01-14 19:00:00 1.7 5 Noroeste 11 Noroeste 0 -- -- 90
2018-01-14 18:00:00 1.8 5 Noroeste 14 Oeste 0 -- -- 86
2018-01-14 17:00:00 2.1 10 Oeste 19 Noroeste 0 -- -- 88
2018-01-14 16:00:00 2.2 13 Noroeste 19 Noroeste 0 -- -- 87
2018-01-14 15:00:00 2.1 12 Oeste 19 Oeste 0 -- -- 91
2018-01-14 14:00:00 2 12 Sudoeste 17 Sudoeste 0 -- -- 94
2018-01-14 13:00:00 1.7 10 Sudoeste 15 Oeste 0 -- -- 94
2018-01-14 12:00:00 1.7 9 Sudoeste 12 Sudoeste 0 -- -- 94
2018-01-14 11:00:00 1.3 7 Oeste 13 Oeste 0 -- -- 97
2018-01-14 10:00:00 0.9 5 Oeste 15 Oeste 0 -- -- 99
2018-01-14 09:00:00 0.8 12 Oeste 20 Oeste 0 -- -- 99
2018-01-14 08:00:00 0.9 10 Oeste 21 Oeste 0 -- -- 99
2018-01-14 07:00:00 0.7 10 Sudoeste 16 Sudoeste 0.2 -- -- 99
2018-01-14 06:00:00 0.8 11 Sudoeste 21 Sudoeste 0 -- -- 99
2018-01-14 05:00:00 1 13 Sudoeste 22 Sudoeste 0.2 -- -- 99
2018-01-14 04:00:00 1.3 12 Sudoeste 22 Oeste 0.2 -- -- 100
2018-01-14 03:00:00 1.3 15 Oeste 28 Oeste 0 -- -- 99
2018-01-14 02:00:00 1.4 14 Sudoeste 24 Sudoeste 0 -- -- 99
2018-01-14 01:00:00 1.5 16 Sudoeste 24 Sudoeste 0.2 -- -- 99
2018-01-14 00:00:00 1.1 7 Sudoeste 14 Sudoeste 0.8 -- -- 98
2018-01-13 23:00:00 1.5 6 Sudoeste 20 Sudoeste 0 -- -- 98
2018-01-13 22:00:00 1.4 15 Sudoeste 35 Oeste 0 -- -- 97
2018-01-13 21:00:00 1.5 16 Sudoeste 32 Sudoeste 0.2 -- -- 98
2018-01-13 20:00:00 1.2 20 Sudoeste 39 Sudoeste 0.6 -- -- 98
2018-01-13 19:00:00 0.9 20 Sudoeste 32 Sudoeste 1 -- -- 98
2018-01-13 18:00:00 0.7 8 Sudoeste 15 Sudoeste 0.8 -- -- 98
2018-01-13 17:00:00 0.5 5 Sudoeste 8 Sudoeste 0.4 -- -- 98
2018-01-13 16:00:00 1.2 4 Sudoeste 6 Sudoeste 1 -- -- 96
2018-01-13 15:00:00 1.7 3 Oeste 14 Oeste 0 -- -- 95
2018-01-13 14:00:00 1.6 13 Oeste 28 Oeste 0.2 -- -- 93
2018-01-13 13:00:00 3.6 7 Sudoeste 13 Sudoeste 0 -- -- 80
2018-01-13 12:00:00 2.5 4 Norte 8 Nordeste 0 -- -- 88
2018-01-13 11:00:00 1.4 6 Nordeste 9 Nordeste 0 -- -- 85
2018-01-13 10:00:00 -0.8 0 Calma 7 Sudoeste 0 -- -- 92
2018-01-13 09:00:00 -1.6 0 Calma 6 Sudoeste 0 -- -- 94
2018-01-13 08:00:00 -1.7 4 Sur 8 Sudoeste 0 -- -- 95
2018-01-13 07:00:00 -1.9 5 Sudoeste 7 Sudoeste 0 -- -- 96
2018-01-13 06:00:00 -1.6 3 Sudoeste 6 Sur 0 -- -- 97
2018-01-13 05:00:00 -0.7 3 Norte 6 Noroeste 0 -- -- 96
2018-01-13 04:00:00 -0.7 0 Calma 7 Sur 0 -- -- 94
2018-01-13 03:00:00 -0.7 5 Sur 8 Sur 0 -- -- 96
2018-01-13 02:00:00 -0.8 0 Calma 3 Noroeste 0 -- -- 95
2018-01-13 01:00:00 -0.8 0 Calma 4 Sudoeste 0 -- -- 93
2018-01-13 00:00:00 -0.7 3 Sudoeste 8 Sur 0 -- -- 94
2018-01-12 23:00:00 -0.6 5 Sur 8 Sur 0 -- -- 95
2018-01-12 22:00:00 -0.2 4 Sur 6 Nordeste 0 -- -- 92
2018-01-12 21:00:00 1.1 5 Oeste 7 Oeste 0 -- -- 91
2018-01-12 20:00:00 1.9 5 Sur 8 Sur 0 -- -- 87
2018-01-12 19:00:00 3 6 Sudoeste 8 Sudoeste 0 -- -- 85
2018-01-12 18:00:00 4.3 5 Sudoeste 10 Oeste 0 -- -- 78
2018-01-12 17:00:00 5.5 6 Oeste 10 Oeste 0 -- -- 68
2018-01-12 16:00:00 6 8 Oeste 14 Oeste 0 -- -- 69
2018-01-12 15:00:00 5.8 10 Oeste 17 Oeste 0 -- -- 70
2018-01-12 14:00:00 5.5 6 Sudoeste 19 Oeste 0 -- -- 77
2018-01-12 13:00:00 4.3 10 Sudoeste 21 Oeste 0 -- -- 80
2018-01-12 12:00:00 2.2 15 Oeste 23 Sudoeste 0 -- -- 89
2018-01-12 11:00:00 0.7 14 Sudoeste 23 Sudoeste 0 -- -- 94
2018-01-12 10:00:00 0.3 13 Sudoeste 23 Oeste 0 -- -- 95
2018-01-12 09:00:00 0.2 12 Sudoeste 19 Sudoeste 0 -- -- 96
2018-01-12 08:00:00 -0.4 8 Sudoeste 21 Sudoeste 0 -- -- 95
2018-01-12 07:00:00 0.1 13 Sudoeste 26 Sudoeste 0 -- -- 95
2018-01-12 06:00:00 0.2 13 Sudoeste 24 Sudoeste 0 -- -- 94
2018-01-12 05:00:00 0.4 15 Sudoeste 23 Sudoeste 0 -- -- 93
2018-01-12 04:00:00 0.5 11 Sudoeste 25 Sudoeste 0 -- -- 93
2018-01-12 03:00:00 0.5 12 Sudoeste 23 Sudoeste 0 -- -- 93
2018-01-12 02:00:00 1.2 17 Sudoeste 26 Sudoeste 0 -- -- 91
2018-01-12 01:00:00 1.5 13 Sudoeste 29 Sudoeste 0 -- -- 91
2018-01-12 00:00:00 1.7 20 Sudoeste 31 Sudoeste 0 -- -- 90
2018-01-11 23:00:00 1.8 21 Sudoeste 31 Sudoeste 0 -- -- 90
2018-01-11 22:00:00 2.2 23 Sudoeste 37 Sudoeste 0 -- -- 88
2018-01-11 21:00:00 2.5 20 Sudoeste 33 Sudoeste 0 -- -- 87
2018-01-11 20:00:00 2.9 24 Sudoeste 34 Oeste 0 -- -- 84
2018-01-11 19:00:00 2.9 15 Sudoeste 26 Sudoeste 0 -- -- 82
2018-01-11 18:00:00 3.6 18 Oeste 32 Oeste 0 -- -- 75
2018-01-11 17:00:00 4.1 22 Oeste 38 Oeste 0 -- -- 70
2018-01-11 16:00:00 4.4 28 Oeste 40 Oeste 0 -- -- 70
2018-01-11 15:00:00 3.5 28 Oeste 45 Oeste 0 -- -- 72
2018-01-11 14:00:00 3.6 23 Oeste 43 Sudoeste 0 -- -- 77
2018-01-11 13:00:00 3.1 25 Oeste 42 Oeste 0 -- -- 81
2018-01-11 12:00:00 2.4 26 Oeste 40 Sudoeste 0 -- -- 84
2018-01-11 11:00:00 1.6 23 Oeste 37 Oeste 0 -- -- 89
2018-01-11 10:00:00 1.2 25 Oeste 41 Oeste 0 -- -- 92
2018-01-11 09:00:00 1 18 Oeste 31 Oeste 0 -- -- 92
2018-01-11 08:00:00 0.9 21 Sudoeste 37 Sudoeste 0 -- -- 92
2018-01-11 07:00:00 0.9 23 Sudoeste 44 Oeste 0 -- -- 91
2018-01-11 06:00:00 1.1 22 Oeste 45 Oeste 0 -- -- 91
2018-01-11 05:00:00 1.7 26 Oeste 44 Oeste 0 -- -- 92
2018-01-11 04:00:00 1.5 28 Sudoeste 42 Sudoeste 0 -- -- 92
2018-01-11 03:00:00 1.3 30 Sudoeste 48 Sudoeste 0 -- -- 93
2018-01-11 02:00:00 1.2 25 Sudoeste 42 Sudoeste 0 -- -- 94
2018-01-11 01:00:00 1.3 21 Sudoeste 37 Sudoeste 0 -- -- 92
2018-01-11 00:00:00 1.2 22 Sudoeste 37 Sudoeste 0 -- -- 93
2018-01-10 23:00:00 1.1 18 Sudoeste 41 Oeste 0 -- -- 93
2018-01-10 22:00:00 1.8 23 Oeste 46 Oeste 0 -- -- 92
2018-01-10 21:00:00 2.2 19 Oeste 34 Sudoeste 0 -- -- 93
2018-01-10 20:00:00 2 19 Sudoeste 52 Sudoeste 0.4 -- -- 94
2018-01-10 19:00:00 2.8 25 Sudoeste 36 Sudoeste 0 -- -- 94
2018-01-10 18:00:00 3.4 27 Sudoeste 53 Sudoeste 0.2 -- -- 91
2018-01-10 17:00:00 4.3 31 Sudoeste 53 Sudoeste 0 -- -- 84
2018-01-10 16:00:00 3.9 23 Sudoeste 46 Sudoeste 0.2 -- -- 90
2018-01-10 15:00:00 4.3 21 Sudoeste 30 Sudoeste 0 -- -- 84
2018-01-10 14:00:00 3.6 19 Sudoeste 32 Sudoeste 0 -- -- 90
2018-01-10 13:00:00 4.1 18 Sudoeste 32 Sudoeste 0 -- -- 87
2018-01-10 12:00:00 2.9 12 Sudoeste 28 Sudoeste 0 -- -- 97
2018-01-10 11:00:00 2.4 18 Sudoeste 31 Sudoeste 0 -- -- 99
2018-01-10 10:00:00 2.1 18 Sudoeste 30 Sudoeste 0 -- -- 100
2018-01-10 09:00:00 2 17 Sudoeste 27 Sudoeste 0.2 -- -- 99
2018-01-10 08:00:00 2.1 13 Sudoeste 23 Sudoeste 0 -- -- 98
2018-01-10 07:00:00 2.3 16 Sudoeste 24 Sudoeste 0 -- -- 97
2018-01-10 06:00:00 2.3 7 Oeste 17 Sudoeste 0 -- -- 98
2018-01-10 05:00:00 2.4 10 Sudoeste 23 Sudoeste 0 -- -- 99
2018-01-10 04:00:00 2.3 12 Sudoeste 21 Sudoeste 0 -- -- 99
2018-01-10 03:00:00 2.5 14 Sudoeste 29 Sudoeste 0 -- -- 100
2018-01-10 02:00:00 2.5 19 Sudoeste 29 Sudoeste 0 -- -- 100
2018-01-10 01:00:00 2.5 12 Sudoeste 18 Sudoeste 0.2 -- -- 99
2018-01-10 00:00:00 1.9 10 Sudoeste 16 Sudoeste 0.4 -- -- 100
2018-01-09 23:00:00 1.7 9 Sudoeste 17 Sudoeste 0.4 -- -- 99
2018-01-09 22:00:00 1.4 10 Sudoeste 15 Sudoeste 0.6 -- -- 99
2018-01-09 21:00:00 0.3 4 Nordeste 12 Norte 0.2 -- -- 97
2018-01-09 20:00:00 1.1 2 Oeste 16 Sudoeste 0 -- -- 94
2018-01-09 19:00:00 1 9 Sur 13 Sur 0.2 -- -- 97
2018-01-09 18:00:00 0.2 0 Calma 9 Oeste 0 -- -- 90
2018-01-09 17:00:00 0.1 2 Nordeste 6 Este 0 -- -- 90
2018-01-09 16:00:00 -0.6 0 Calma 8 Oeste 0 -- -- 90
2018-01-09 15:00:00 -1.9 3 Nordeste 8 Norte 0.6 -- -- 87
2018-01-09 14:00:00 -2.5 0 Calma 5 Noroeste 0.8 -- -- 92
2018-01-09 13:00:00 -5.3 6 Noroeste 9 Noroeste 0.2 -- -- 97
2018-01-09 12:00:00 -5.6 2 Este 5 Sudoeste 0 -- -- 97
2018-01-09 11:00:00 -8.7 3 Sudoeste 5 Sur 0 -- -- 96
2018-01-09 10:00:00 -11.6 0 Calma 2 Nordeste 0 -- -- 94
2018-01-09 09:00:00 -14 0 Calma 2 Nordeste 0 -- -- 92
2018-01-09 08:00:00 -13.9 0 Calma 5 Sur 0 -- -- 91
2018-01-09 07:00:00 -14.7 0 Calma 4 Sudoeste 0 -- -- 91
2018-01-09 06:00:00 -13.7 0 Calma 9 Sur 0 -- -- 90
2018-01-09 05:00:00 -15.3 4 Sudoeste 6 Sur 0 -- -- 90
2018-01-09 04:00:00 -12.5 3 Noroeste 10 Noroeste 0 -- -- 92
2018-01-09 03:00:00 -13.5 8 Sur 9 Sur 0 -- -- 92
2018-01-09 02:00:00 -12.3 2 Nordeste 5 Sur 0 -- -- 92
2018-01-09 01:00:00 -10.9 3 Norte 12 Sudoeste 0 -- -- 92
2018-01-09 00:00:00 -7 9 Sur 18 Sudoeste 0 -- -- 95
2018-01-08 23:00:00 -9.7 5 Sudoeste 9 Sur 0 -- -- 95
2018-01-08 22:00:00 -8.3 7 Sudoeste 9 Sur 0 -- -- 97
2018-01-08 21:00:00 -7.4 8 Sudoeste 12 Sur 0 -- -- 96
2018-01-08 20:00:00 -6.4 6 Sudoeste 12 Sudoeste 0 -- -- 94
2018-01-08 19:00:00 -6.6 6 Sur 9 Sur 0 -- -- 95
2018-01-08 18:00:00 -5.6 5 Sur 9 Norte 0 -- -- 88
2018-01-08 17:00:00 -2.8 4 Nordeste 7 Norte 0.2 -- -- 77
2018-01-08 16:00:00 -3.2 0 Calma 17 Noroeste 1.6 -- -- 81
2018-01-08 15:00:00 -1.1 4 Norte 5 Norte 2.8 -- -- 81
2018-01-08 14:00:00 -4.6 2 Sur 8 Noroeste 3.2 -- -- 88
2018-01-08 13:00:00 -5.6 0 Calma 2 Este 2.8 -- -- 95
2018-01-08 12:00:00 -7.7 0 Calma 3 Sudeste 0.6 -- -- 95
2018-01-08 11:00:00 -10.6 0 Calma 6 Sudeste 0 -- -- 92
2018-01-08 10:00:00 -12.4 6 Sudeste 8 Sudeste 0 -- -- 93
2018-01-08 09:00:00 -14.6 5 Sudeste 10 Sudeste 0 -- -- 90
2018-01-08 08:00:00 -14.7 4 Sudeste 6 Sudeste 0 -- -- 90
2018-01-08 07:00:00 -14 2 Sudeste 6 Sudeste 0 -- -- 91
2018-01-08 06:00:00 -13.5 2 Sudeste 9 Sudeste 0 -- -- 91
2018-01-08 05:00:00 -13 0 Calma 9 Sudeste 0 -- -- 90
2018-01-08 04:00:00 -12.1 3 Sudeste 8 Sudeste 0 -- -- 92
2018-01-08 03:00:00 -11.5 3 Sudeste 8 Sudeste 0 -- -- 92
2018-01-08 02:00:00 -10.2 3 Sudeste 8 Sudeste 0 -- -- 93
2018-01-08 01:00:00 -7.2 2 Sudeste 8 Sudeste 0 -- -- 92
2018-01-08 00:00:00 -5.3 3 Sudeste 11 Sudeste 0 -- -- 87
2018-01-07 23:00:00 -2.7 8 Sudeste 15 Sudeste 0 -- -- 85
2018-01-07 22:00:00 -2 5 Sudeste 19 Sudeste 0 -- -- 84
2018-01-07 21:00:00 -2.8 10 Sudeste 16 Sudeste 0 -- -- 91
2018-01-07 20:00:00 0 11 Sudeste 25 Este 0 -- -- 82
2018-01-07 19:00:00 0.2 18 Este 37 Este 0 -- -- 86
2018-01-07 18:00:00 0.1 14 Sudeste 21 Este 0.8 -- -- 91
2018-01-07 17:00:00 0.3 8 Sudeste 28 Este 1.6 -- -- 93
2018-01-07 16:00:00 0.7 23 Este 31 Este 1.6 -- -- 92
2018-01-07 15:00:00 0.6 15 Nordeste 21 Nordeste 2.2 -- -- 98
2018-01-07 14:00:00 0.5 9 Nordeste 13 Nordeste 1.4 -- -- 100
2018-01-07 13:00:00 0.2 0 Calma -- -- 1.2 -- -- 100
2018-01-07 12:00:00 0.6 0 Calma -- -- 1.4 -- -- 100
2018-01-07 11:00:00 0.1 0 Calma -- -- 0.2 -- -- 100
2018-01-07 10:00:00 -0.3 0 Calma -- -- 0 -- -- 100
2018-01-07 09:00:00 -0.6 0 Calma -- -- 0 -- -- 100
2018-01-07 08:00:00 -0.6 0 Calma -- -- 0 -- -- 100
2018-01-07 07:00:00 -0.6 0 Calma -- -- 0 -- -- 100
2018-01-07 06:00:00 -0.5 0 Calma -- -- 0 -- -- 100
2018-01-07 05:00:00 -0.6 0 Calma -- -- 0 -- -- 100
2018-01-07 04:00:00 -0.6 0 Calma -- -- 0 -- -- 100
2018-01-07 03:00:00 -0.6 0 Calma -- -- 0 -- -- 100
2018-01-07 02:00:00 -0.5 0 Calma -- -- 0 -- -- 100
2018-01-07 01:00:00 -0.4 0 Calma -- -- 0 -- -- 100
2018-01-07 00:00:00 -0.5 0 Calma -- -- 0 -- -- 100
2018-01-06 23:00:00 -0.4 0 Calma -- -- 0 -- -- 100
2018-01-06 22:00:00 -0.3 0 Calma -- -- 0 -- -- 100
2018-01-06 21:00:00 -0.3 0 Calma -- -- 0 -- -- 100
2018-01-06 20:00:00 -0.3 0 Calma -- -- 0 -- -- 100
2018-01-06 19:00:00 -0.2 0 Calma -- -- 0 -- -- 100
2018-01-06 18:00:00 -0.1 0 Calma -- -- 0.4 -- -- 100
2018-01-06 17:00:00 0.2 0 Calma -- -- 0.4 -- -- 100
2018-01-06 16:00:00 0.3 0 Calma -- -- 0.8 -- -- 100
2018-01-06 15:00:00 0.2 0 Calma -- -- 0.6 -- -- 100
2018-01-06 14:00:00 0.2 0 Calma -- -- 1 -- -- 100
2018-01-06 13:00:00 0.2 0 Calma -- -- 0.6 -- -- 100
2018-01-06 12:00:00 0.1 0 Calma -- -- 0.2 -- -- 100
2018-01-06 11:00:00 0.2 0 Calma 0 Calma 0 -- -- 100
2018-01-06 10:00:00 0.2 0 Calma 3 Sur 0 -- -- 99
2018-01-06 09:00:00 0.2 0 Calma 4 Oeste 0 -- -- 99
2018-01-06 08:00:00 0.3 4 Oeste 7 Norte 0 -- -- 99
2018-01-06 07:00:00 0.7 4 Nordeste 8 Norte 0.4 -- -- 98
2018-01-06 06:00:00 1.1 0 Calma 9 Sur 0.4 -- -- 98
2018-01-06 05:00:00 0.9 5 Sudeste 8 Sudeste 0.6 -- -- 98
2018-01-06 04:00:00 0.7 0 Calma 5 Sur 0.8 -- -- 99
2018-01-06 03:00:00 0.5 3 Sur 5 Sur 1.2 -- -- 99
2018-01-06 02:00:00 0.3 4 Sur 7 Sur 0.2 -- -- 99
2018-01-06 01:00:00 0.4 5 Sur 7 Sudoeste 0.2 -- -- 98
2018-01-06 00:00:00 0.8 5 Sudoeste 19 Noroeste 1.8 -- -- 96
2018-01-05 23:00:00 3.1 14 Noroeste 21 Noroeste 2.8 -- -- 93
2018-01-05 22:00:00 5.4 9 Noroeste 16 Noroeste 2.2 -- -- 96
2018-01-05 21:00:00 6.1 4 Noroeste 7 Oeste 0.4 -- -- 96
2018-01-05 20:00:00 6.3 5 Sudoeste 10 Sudoeste 0 -- -- 94
2018-01-05 19:00:00 6.6 8 Sudoeste 15 Sudoeste 0.4 -- -- 93
2018-01-05 18:00:00 7.1 8 Sudoeste 15 Sudoeste 0.2 -- -- 94
2018-01-05 17:00:00 7.3 6 Sudoeste 21 Sudoeste 0.2 -- -- 94
2018-01-05 16:00:00 7.2 12 Sudoeste 24 Sudoeste 0.2 -- -- 94
2018-01-05 15:00:00 6.8 17 Oeste 35 Sudoeste 0.2 -- -- 92
2018-01-05 14:00:00 7.8 29 Oeste 57 Oeste 0 -- -- 87
2018-01-05 13:00:00 11.1 40 Sudoeste 60 Sudoeste 0 -- -- 68
2018-01-05 12:00:00 9.7 23 Sudoeste 42 Sudoeste 0 -- -- 67
2018-01-05 11:00:00 9 15 Sudoeste 29 Sur 0 -- -- 66
2018-01-05 10:00:00 7.9 17 Sur 32 Sur 0 -- -- 74
2018-01-05 09:00:00 6.6 19 Sur 31 Sur 0 -- -- 80
2018-01-05 08:00:00 6.5 19 Sudoeste 39 Sudoeste 0 -- -- 86
2018-01-05 07:00:00 6.7 16 Sudoeste 29 Sudoeste 0 -- -- 86
2018-01-05 06:00:00 6.7 15 Sudoeste 29 Sudoeste 0 -- -- 84
2018-01-05 05:00:00 6.9 16 Sudoeste 34 Sudoeste 0 -- -- 85
2018-01-05 04:00:00 7.7 22 Sudoeste 36 Sudoeste 0 -- -- 83
2018-01-05 03:00:00 8.2 18 Sudoeste 30 Sudoeste 0 -- -- 78
2018-01-05 02:00:00 8.7 20 Sudoeste 31 Sudoeste 0 -- -- 77
2018-01-05 01:00:00 9.1 21 Sudoeste 40 Sudoeste 0 -- -- 78
2018-01-05 00:00:00 9.5 22 Sudoeste 34 Sudoeste 0 -- -- 76
2018-01-04 23:00:00 9.4 21 Sudoeste 33 Sudoeste 0 -- -- 76
2018-01-04 22:00:00 9.4 22 Sudoeste 38 Sudoeste 0 -- -- 77
2018-01-04 21:00:00 9.5 24 Sudoeste 39 Sudoeste 0 -- -- 76
2018-01-04 20:00:00 9 16 Sudoeste 29 Sudoeste 0 -- -- 78
2018-01-04 19:00:00 8.8 18 Sudoeste 35 Sudoeste 0 -- -- 80
2018-01-04 18:00:00 9 22 Sudoeste 33 Sudoeste 0 -- -- 84
2018-01-04 17:00:00 9.5 21 Sudoeste 47 Sudoeste 0 -- -- 81
2018-01-04 16:00:00 9.6 24 Sudoeste 48 Sudoeste 0 -- -- 81
2018-01-04 15:00:00 9.7 30 Sudoeste 45 Sudoeste 0 -- -- 78
2018-01-04 14:00:00 9.8 24 Sudoeste 44 Sudoeste 0 -- -- 83
2018-01-04 13:00:00 9.9 30 Sudoeste 44 Sudoeste 0 -- -- 83
2018-01-04 12:00:00 9.9 24 Sudoeste 42 Sudoeste 0 -- -- 83
2018-01-04 11:00:00 9.6 20 Sudoeste 36 Sudoeste 0 -- -- 86
2018-01-04 10:00:00 9.3 22 Sudoeste 40 Sudoeste 0 -- -- 89
2018-01-04 09:00:00 9.2 24 Sudoeste 40 Sudoeste 0 -- -- 89
2018-01-04 08:00:00 9.2 25 Sudoeste 39 Sudoeste 0 -- -- 91
2018-01-04 07:00:00 9.2 21 Sudoeste 36 Sudoeste 0 -- -- 91
2018-01-04 06:00:00 9.3 23 Sudoeste 39 Sudoeste 0 -- -- 91
2018-01-04 05:00:00 9.4 24 Sudoeste 37 Sudoeste 0 -- -- 92
2018-01-04 04:00:00 9.4 21 Sudoeste 33 Sudoeste 0 -- -- 92
2018-01-04 03:00:00 9.2 22 Sudoeste 35 Sudoeste 0 -- -- 94
2018-01-04 02:00:00 9.3 21 Sudoeste 34 Sudoeste 0 -- -- 95
2018-01-04 01:00:00 9.5 20 Sudoeste 37 Sudoeste 0 -- -- 95
2018-01-04 00:00:00 10 26 Sudoeste 37 Sudoeste 0 -- -- 94
2018-01-03 23:00:00 10.3 23 Sudoeste 41 Sudoeste 0 -- -- 93
2018-01-03 22:00:00 10.5 22 Sudoeste 35 Sudoeste 0 -- -- 92
2018-01-03 21:00:00 10.5 22 Sudoeste 33 Sudoeste 0 -- -- 92
2018-01-03 20:00:00 10.3 24 Sudoeste 36 Sudoeste 0 -- -- 94
2018-01-03 19:00:00 10.5 18 Sudoeste 30 Sudoeste 0 -- -- 94
2018-01-03 18:00:00 10.6 19 Sudoeste 28 Sudoeste 0 -- -- 94
2018-01-03 17:00:00 10.7 16 Sudoeste 33 Sudoeste 0 -- -- 94
2018-01-03 16:00:00 10.8 19 Sudoeste 37 Sudoeste 0 -- -- 93
2018-01-03 15:00:00 10.6 23 Sudoeste 37 Sudoeste 0 -- -- 95
2018-01-03 14:00:00 10.2 24 Sudoeste 42 Sudoeste 0 -- -- 97
2018-01-03 13:00:00 10 20 Sudoeste 36 Sudoeste 0 -- -- 98
2018-01-03 12:00:00 9.6 20 Sudoeste 36 Sudoeste 0 -- -- 98
2018-01-03 11:00:00 9.5 22 Sudoeste 38 Sudoeste 0 -- -- 99
2018-01-03 10:00:00 9.4 23 Sudoeste 37 Sudoeste 0 -- -- 99
2018-01-03 09:00:00 9.2 22 Sudoeste 36 Sudoeste 0 -- -- 99
2018-01-03 08:00:00 9.1 27 Sudoeste 36 Sudoeste 0 -- -- 99
2018-01-03 07:00:00 9.3 23 Sudoeste 39 Sudoeste 0 -- -- 98
2018-01-03 06:00:00 9.4 24 Sudoeste 38 Sudoeste 0.2 -- -- 99
2018-01-03 05:00:00 9.4 21 Sudoeste 35 Sudoeste 0 -- -- 99
2018-01-03 04:00:00 9.3 22 Sudoeste 39 Sudoeste 0 -- -- 98
2018-01-03 03:00:00 9.4 26 Sudoeste 42 Sudoeste 0 -- -- 98
2018-01-03 02:00:00 9.3 24 Sudoeste 36 Sudoeste 0 -- -- 98
2018-01-03 01:00:00 9.3 23 Sudoeste 35 Sudoeste 0.2 -- -- 98
2018-01-03 00:00:00 9.2 21 Sudoeste 37 Sudoeste 0 -- -- 98
2018-01-02 23:00:00 9.1 22 Sudoeste 34 Sudoeste 0 -- -- 98
2018-01-02 22:00:00 8.8 15 Sudoeste 29 Oeste 0 -- -- 99
2018-01-02 21:00:00 8.5 17 Sudoeste 31 Sudoeste 0 -- -- 98
2018-01-02 20:00:00 8.4 15 Sudoeste 33 Sudoeste 0 -- -- 98
2018-01-02 19:00:00 8.2 23 Sudoeste 36 Sudoeste 0 -- -- 98
2018-01-02 18:00:00 8.1 26 Sudoeste 39 Sudoeste 0 -- -- 97
2018-01-02 17:00:00 8 26 Sudoeste 41 Sudoeste 0 -- -- 97
2018-01-02 16:00:00 7.8 22 Sudoeste 36 Sudoeste 0 -- -- 97
2018-01-02 15:00:00 7.6 21 Sudoeste 40 Sudoeste 0 -- -- 96
2018-01-02 14:00:00 7.5 21 Sudoeste 39 Sudoeste 0 -- -- 94
2018-01-02 13:00:00 7.2 22 Sudoeste 37 Sudoeste 0 -- -- 90
2018-01-02 12:00:00 6.9 22 Sudoeste 37 Sudoeste 0 -- -- 90
2018-01-02 11:00:00 6.4 21 Sudoeste 39 Sudoeste 0 -- -- 90
2018-01-02 10:00:00 6 26 Sudoeste 48 Sudoeste 0 -- -- 91
2018-01-02 09:00:00 5.7 24 Sudoeste 47 Sudoeste 0 -- -- 91
2018-01-02 08:00:00 5.5 29 Sudoeste 44 Sudoeste 0 -- -- 92
2018-01-02 07:00:00 5.6 19 Oeste 41 Sudoeste 0 -- -- 91
2018-01-02 06:00:00 5.5 25 Oeste 43 Oeste 0 -- -- 91
2018-01-02 05:00:00 5.5 24 Oeste 47 Sudoeste 0 -- -- 90
2018-01-02 04:00:00 5.5 29 Sudoeste 46 Sudoeste 0 -- -- 90
2018-01-02 03:00:00 5.5 20 Sudoeste 45 Sudoeste 0 -- -- 91
2018-01-02 02:00:00 5.8 31 Sudoeste 50 Sudoeste 0 -- -- 91
2018-01-02 01:00:00 6 31 Sudoeste 50 Sudoeste 0 -- -- 92
2018-01-02 00:00:00 6.6 30 Sudoeste 49 Sudoeste 0 -- -- 91
2018-01-01 23:00:00 6.8 29 Sudoeste 45 Sudoeste 0 -- -- 91
2018-01-01 22:00:00 6.8 25 Sudoeste 45 Sudoeste 0 -- -- 93
2018-01-01 21:00:00 6.7 25 Sudoeste 41 Sudoeste 0 -- -- 94
2018-01-01 20:00:00 6.5 26 Sudoeste 42 Sudoeste 0 -- -- 95
2018-01-01 19:00:00 6.3 28 Sudoeste 48 Sudoeste 0 -- -- 95
2018-01-01 18:00:00 5.9 29 Sudoeste 50 Sudoeste 0 -- -- 96
2018-01-01 17:00:00 5.8 30 Sudoeste 48 Sudoeste 0.2 -- -- 95
2018-01-01 16:00:00 5.7 27 Sudoeste 51 Sudoeste 0 -- -- 92
2018-01-01 15:00:00 5.8 39 Sudoeste 59 Sudoeste 0 -- -- 85
2018-01-01 14:00:00 5.8 38 Sudoeste 60 Sudoeste 0 -- -- 77
2018-01-01 13:00:00 5.6 33 Sudoeste 60 Sudoeste 0 -- -- 75
2018-01-01 12:00:00 5.3 28 Sudoeste 54 Sudoeste 0 -- -- 74
2018-01-01 11:00:00 5.2 27 Sudoeste 43 Sudoeste 0 -- -- 76
2018-01-01 10:00:00 3.1 16 Sudoeste 33 Sur 0 -- -- 82
2018-01-01 09:00:00 2.2 19 Sudoeste 30 Sur 0 -- -- 83
2018-01-01 08:00:00 1.9 18 Sudoeste 28 Sudoeste 0 -- -- 84
2018-01-01 07:00:00 1.9 15 Sudoeste 24 Sudoeste 0 -- -- 85
2018-01-01 06:00:00 1.5 18 Sudoeste 28 Sudoeste 0 -- -- 88
2018-01-01 05:00:00 1.8 17 Sudoeste 35 Sudoeste 0 -- -- 89
2018-01-01 04:00:00 2.3 17 Sudoeste 34 Sudoeste 0 -- -- 90
2018-01-01 03:00:00 2.5 21 Sudoeste 39 Sudoeste 0 -- -- 91
2018-01-01 02:00:00 1.7 18 Sudoeste 37 Sudoeste 0 -- -- 94
2018-01-01 01:00:00 2 24 Sudoeste 48 Sudoeste 0 -- -- 93
2018-01-01 00:00:00 1.5 16 Sudoeste 26 Sudoeste 0 -- -- 95
2017-12-31 23:00:00 1.3 10 Sudoeste 28 Oeste 0 -- -- 89
2017-12-31 22:00:00 2.4 19 Oeste 37 Sudoeste 0 -- -- 84
2017-12-31 21:00:00 3.5 15 Oeste 39 Oeste 0 -- -- 88
2017-12-31 20:00:00 4.8 23 Oeste 39 Oeste 0.4 -- -- 92
2017-12-31 19:00:00 4.9 24 Oeste 40 Oeste 0.2 -- -- 94
2017-12-31 18:00:00 5.1 19 Sudoeste 56 Oeste 1 -- -- 94
2017-12-31 17:00:00 7.3 30 Sudoeste 50 Oeste 2 -- -- 92
2017-12-31 16:00:00 8.3 20 Sudoeste 43 Sudoeste 0.2 -- -- 81
2017-12-31 15:00:00 9.2 26 Sudoeste 47 Sudoeste 0 -- -- 69
2017-12-31 14:00:00 8.6 30 Sudoeste 42 Sudoeste 0 -- -- 72
2017-12-31 13:00:00 8.4 19 Sudoeste 37 Sudoeste 0 -- -- 78
2017-12-31 12:00:00 7.9 15 Sudoeste 33 Sudoeste 0 -- -- 78
2017-12-31 11:00:00 7.3 15 Sudoeste 26 Sur 0 -- -- 80
2017-12-31 10:00:00 6.7 14 Sudoeste 26 Sudoeste 0 -- -- 87
2017-12-31 09:00:00 6.4 14 Sudoeste 24 Sudoeste 0 -- -- 89
2017-12-31 08:00:00 6.1 12 Sudoeste 22 Sudoeste 0 -- -- 91
2017-12-31 07:00:00 4.5 7 Sudoeste 12 Sudoeste 0 -- -- 97
2017-12-31 06:00:00 3.8 4 Sur 5 Sudoeste 0 -- -- 96
2017-12-31 05:00:00 5.2 5 Noroeste 11 Sur 0 -- -- 94
2017-12-31 04:00:00 5.8 6 Sur 10 Sur 0 -- -- 93
2017-12-31 03:00:00 4.8 0 Calma 11 Oeste 0 -- -- 97
2017-12-31 02:00:00 4.4 6 Sur 8 Sur 0 -- -- 99
2017-12-31 01:00:00 3 4 Sur 8 Sur 0 -- -- 97